sensor_id;sensor_type;location;lat;lon;timestamp;temperature;humidity
11087;DHT22;5597;47.588;9.642;2024-01-11T00:00:58;-1.80;99.90
11087;DHT22;5597;47.588;9.642;2024-01-11T00:03:24;-1.80;99.90
11087;DHT22;5597;47.588;9.642;2024-01-11T00:05:50;-1.90;99.90
11087;DHT22;5597;47.588;9.642;2024-01-11T00:08:16;-1.90;99.90
11087;DHT22;5597;47.588;9.642;2024-01-11T00:10:41;-1.90;99.90
11087;DHT22;5597;47.588;9.642;2024-01-11T00:13:07;-1.90;99.90
11087;DHT22;5597;47.588;9.642;2024-01-11T00:15:32;-1.90;99.90
11087;DHT22;5597;47.588;9.642;2024-01-11T00:17:58;-2.00;99.90
11087;DHT22;5597;47.588;9.642;2024-01-11T00:20:24;-2.00;99.90
11087;DHT22;5597;47.588;9.642;2024-01-11T00:22:49;-2.00;99.90
11087;DHT22;5597;47.588;9.642;2024-01-11T00:25:15;-2.10;99.90
11087;DHT22;5597;47.588;9.642;2024-01-11T00:27:40;-2.10;99.90
11087;DHT22;5597;47.588;9.642;2024-01-11T00:30:07;-2.10;99.90
11087;DHT22;5597;47.588;9.642;2024-01-11T00:32:32;-2.10;99.90
11087;DHT22;5597;47.588;9.642;2024-01-11T00:34:58;-2.10;99.90
11087;DHT22;5597;47.588;9.642;2024-01-11T00:37:23;-2.10;99.90
11087;DHT22;5597;47.588;9.642;2024-01-11T00:39:50;-2.20;99.90
11087;DHT22;5597;47.588;9.642;2024-01-11T00:42:16;-2.20;99.90
11087;DHT22;5597;47.588;9.642;2024-01-11T00:44:41;-2.20;99.90
11087;DHT22;5597;47.588;9.642;2024-01-11T00:47:07;-2.20;99.90
11087;DHT22;5597;47.588;9.642;2024-01-11T00:49:32;-2.20;99.90
11087;DHT22;5597;47.588;9.642;2024-01-11T00:51:58;-2.20;99.90
11087;DHT22;5597;47.588;9.642;2024-01-11T00:54:24;-2.20;99.90
11087;DHT22;5597;47.588;9.642;2024-01-11T00:56:50;-2.10;99.90
11087;DHT22;5597;47.588;9.642;2024-01-11T00:59:15;-2.10;99.90
11087;DHT22;5597;47.588;9.642;2024-01-11T01:01:47;-2.20;99.90
11087;DHT22;5597;47.588;9.642;2024-01-11T01:04:12;-2.10;99.90
11087;DHT22;5597;47.588;9.642;2024-01-11T01:06:38;-2.20;99.90
11087;DHT22;5597;47.588;9.642;2024-01-11T01:09:04;-2.10;99.90
11087;DHT22;5597;47.588;9.642;2024-01-11T01:11:29;-2.10;99.90
11087;DHT22;5597;47.588;9.642;2024-01-11T01:13:55;-2.10;99.90
11087;DHT22;5597;47.588;9.642;2024-01-11T01:16:21;-2.10;99.90
11087;DHT22;5597;47.588;9.642;2024-01-11T01:18:46;-2.10;99.90
11087;DHT22;5597;47.588;9.642;2024-01-11T01:21:12;-2.10;99.90
11087;DHT22;5597;47.588;9.642;2024-01-11T01:23:37;-2.10;99.90
11087;DHT22;5597;47.588;9.642;2024-01-11T01:26:03;-2.00;99.90
11087;DHT22;5597;47.588;9.642;2024-01-11T01:28:29;-2.00;99.90
11087;DHT22;5597;47.588;9.642;2024-01-11T01:30:54;-2.00;99.90
11087;DHT22;5597;47.588;9.642;2024-01-11T01:33:20;-2.00;99.90
11087;DHT22;5597;47.588;9.642;2024-01-11T01:35:45;-2.00;99.90
11087;DHT22;5597;47.588;9.642;2024-01-11T01:38:12;-2.00;99.90
11087;DHT22;5597;47.588;9.642;2024-01-11T01:40:38;-2.00;99.90
11087;DHT22;5597;47.588;9.642;2024-01-11T01:43:06;-2.00;99.90
11087;DHT22;5597;47.588;9.642;2024-01-11T01:45:33;-2.00;99.90
11087;DHT22;5597;47.588;9.642;2024-01-11T01:47:58;-2.00;99.90
11087;DHT22;5597;47.588;9.642;2024-01-11T01:50:24;-2.00;99.90
11087;DHT22;5597;47.588;9.642;2024-01-11T01:52:50;-2.00;99.90
11087;DHT22;5597;47.588;9.642;2024-01-11T01:55:17;-2.10;99.90
11087;DHT22;5597;47.588;9.642;2024-01-11T01:57:43;-2.10;99.90
11087;DHT22;5597;47.588;9.642;2024-01-11T02:00:10;-2.00;99.90
11087;DHT22;5597;47.588;9.642;2024-01-11T02:02:38;-2.10;99.90
11087;DHT22;5597;47.588;9.642;2024-01-11T02:05:05;-2.10;99.90
11087;DHT22;5597;47.588;9.642;2024-01-11T02:07:31;-2.10;99.90
11087;DHT22;5597;47.588;9.642;2024-01-11T02:09:58;-2.10;99.90
11087;DHT22;5597;47.588;9.642;2024-01-11T02:12:24;-2.20;99.90
11087;DHT22;5597;47.588;9.642;2024-01-11T02:14:51;-2.20;99.90
11087;DHT22;5597;47.588;9.642;2024-01-11T02:17:17;-2.20;99.90
11087;DHT22;5597;47.588;9.642;2024-01-11T02:19:42;-2.20;99.90
11087;DHT22;5597;47.588;9.642;2024-01-11T02:22:13;-2.20;99.90
11087;DHT22;5597;47.588;9.642;2024-01-11T02:24:39;-2.20;99.90
11087;DHT22;5597;47.588;9.642;2024-01-11T02:27:05;-2.20;99.90
11087;DHT22;5597;47.588;9.642;2024-01-11T02:29:32;-2.20;99.90
11087;DHT22;5597;47.588;9.642;2024-01-11T02:31:58;-2.20;99.90
11087;DHT22;5597;47.588;9.642;2024-01-11T02:34:27;-2.20;99.90
11087;DHT22;5597;47.588;9.642;2024-01-11T02:36:53;-2.20;99.90
11087;DHT22;5597;47.588;9.642;2024-01-11T02:39:20;-2.20;99.90
11087;DHT22;5597;47.588;9.642;2024-01-11T02:41:47;-2.20;99.90
11087;DHT22;5597;47.588;9.642;2024-01-11T02:44:14;-2.20;99.90
11087;DHT22;5597;47.588;9.642;2024-01-11T02:46:40;-2.20;99.90
11087;DHT22;5597;47.588;9.642;2024-01-11T02:49:05;-2.20;99.90
11087;DHT22;5597;47.588;9.642;2024-01-11T02:51:31;-2.20;99.90
11087;DHT22;5597;47.588;9.642;2024-01-11T02:53:57;-2.20;99.90
11087;DHT22;5597;47.588;9.642;2024-01-11T02:56:23;-2.20;99.90
11087;DHT22;5597;47.588;9.642;2024-01-11T02:58:49;-2.20;99.90
11087;DHT22;5597;47.588;9.642;2024-01-11T03:01:14;-2.20;99.90
11087;DHT22;5597;47.588;9.642;2024-01-11T03:03:40;-2.20;99.90
11087;DHT22;5597;47.588;9.642;2024-01-11T03:06:06;-2.20;99.90
11087;DHT22;5597;47.588;9.642;2024-01-11T03:08:31;-2.20;99.90
11087;DHT22;5597;47.588;9.642;2024-01-11T03:10:57;-2.30;99.90
11087;DHT22;5597;47.588;9.642;2024-01-11T03:13:23;-2.30;99.90
11087;DHT22;5597;47.588;9.642;2024-01-11T03:15:49;-2.30;99.90
11087;DHT22;5597;47.588;9.642;2024-01-11T03:18:14;-2.30;99.90
11087;DHT22;5597;47.588;9.642;2024-01-11T03:20:40;-2.30;99.90
11087;DHT22;5597;47.588;9.642;2024-01-11T03:23:05;-2.30;99.90
11087;DHT22;5597;47.588;9.642;2024-01-11T03:25:31;-2.30;99.90
11087;DHT22;5597;47.588;9.642;2024-01-11T03:27:58;-2.30;99.90
11087;DHT22;5597;47.588;9.642;2024-01-11T03:30:24;-2.40;99.90
11087;DHT22;5597;47.588;9.642;2024-01-11T03:32:50;-2.40;99.90
11087;DHT22;5597;47.588;9.642;2024-01-11T03:35:15;-2.40;99.90
11087;DHT22;5597;47.588;9.642;2024-01-11T03:37:41;-2.40;99.90
11087;DHT22;5597;47.588;9.642;2024-01-11T03:40:07;-2.40;99.90
11087;DHT22;5597;47.588;9.642;2024-01-11T03:42:32;-2.40;99.90
11087;DHT22;5597;47.588;9.642;2024-01-11T03:44:58;-2.40;99.90
11087;DHT22;5597;47.588;9.642;2024-01-11T03:47:23;-2.40;99.90
11087;DHT22;5597;47.588;9.642;2024-01-11T03:49:49;-2.50;99.90
11087;DHT22;5597;47.588;9.642;2024-01-11T03:52:15;-2.50;99.90
11087;DHT22;5597;47.588;9.642;2024-01-11T03:54:40;-2.50;99.90
11087;DHT22;5597;47.588;9.642;2024-01-11T03:57:06;-2.40;99.90
11087;DHT22;5597;47.588;9.642;2024-01-11T03:59:34;-2.40;99.90
11087;DHT22;5597;47.588;9.642;2024-01-11T04:02:00;-2.40;99.90
11087;DHT22;5597;47.588;9.642;2024-01-11T04:04:26;-2.40;99.90
11087;DHT22;5597;47.588;9.642;2024-01-11T04:06:52;-2.50;99.90
11087;DHT22;5597;47.588;9.642;2024-01-11T04:09:20;-2.50;99.90
11087;DHT22;5597;47.588;9.642;2024-01-11T04:11:46;-2.50;99.90
11087;DHT22;5597;47.588;9.642;2024-01-11T04:14:11;-2.50;99.90
11087;DHT22;5597;47.588;9.642;2024-01-11T04:16:41;-2.50;99.90
11087;DHT22;5597;47.588;9.642;2024-01-11T04:19:07;-2.60;99.90
11087;DHT22;5597;47.588;9.642;2024-01-11T04:21:33;-2.60;99.90
11087;DHT22;5597;47.588;9.642;2024-01-11T04:23:58;-2.60;99.90
11087;DHT22;5597;47.588;9.642;2024-01-11T04:26:24;-2.60;99.90
11087;DHT22;5597;47.588;9.642;2024-01-11T04:28:52;-2.60;99.90
11087;DHT22;5597;47.588;9.642;2024-01-11T04:31:18;-2.60;99.90
11087;DHT22;5597;47.588;9.642;2024-01-11T04:33:45;-2.70;99.90
11087;DHT22;5597;47.588;9.642;2024-01-11T04:36:11;-2.70;99.90
11087;DHT22;5597;47.588;9.642;2024-01-11T04:38:38;-2.70;99.90
11087;DHT22;5597;47.588;9.642;2024-01-11T04:41:13;-2.70;99.90
11087;DHT22;5597;47.588;9.642;2024-01-11T04:43:40;-2.80;99.90
11087;DHT22;5597;47.588;9.642;2024-01-11T04:46:21;-2.80;99.90
11087;DHT22;5597;47.588;9.642;2024-01-11T04:48:48;-2.80;99.90
11087;DHT22;5597;47.588;9.642;2024-01-11T04:51:17;-2.90;99.90
11087;DHT22;5597;47.588;9.642;2024-01-11T04:53:44;-2.90;99.90
11087;DHT22;5597;47.588;9.642;2024-01-11T04:56:14;-2.90;99.90
11087;DHT22;5597;47.588;9.642;2024-01-11T04:58:41;-2.90;99.90
11087;DHT22;5597;47.588;9.642;2024-01-11T05:01:07;-3.00;99.90
11087;DHT22;5597;47.588;9.642;2024-01-11T05:03:36;-3.00;99.90
11087;DHT22;5597;47.588;9.642;2024-01-11T05:06:02;-3.00;99.90
11087;DHT22;5597;47.588;9.642;2024-01-11T05:08:28;-3.10;99.90
11087;DHT22;5597;47.588;9.642;2024-01-11T05:10:53;-3.10;99.90
11087;DHT22;5597;47.588;9.642;2024-01-11T05:13:19;-3.10;99.90
11087;DHT22;5597;47.588;9.642;2024-01-11T05:15:45;-3.10;99.90
11087;DHT22;5597;47.588;9.642;2024-01-11T05:18:11;-3.10;99.90
11087;DHT22;5597;47.588;9.642;2024-01-11T05:20:37;-3.10;99.90
11087;DHT22;5597;47.588;9.642;2024-01-11T05:23:03;-3.10;99.90
11087;DHT22;5597;47.588;9.642;2024-01-11T05:25:32;-3.20;99.90
11087;DHT22;5597;47.588;9.642;2024-01-11T05:28:01;-3.20;99.90
11087;DHT22;5597;47.588;9.642;2024-01-11T05:30:27;-3.20;99.90
11087;DHT22;5597;47.588;9.642;2024-01-11T05:32:53;-3.20;99.90
11087;DHT22;5597;47.588;9.642;2024-01-11T05:35:19;-3.20;99.90
11087;DHT22;5597;47.588;9.642;2024-01-11T05:37:45;-3.20;99.90
11087;DHT22;5597;47.588;9.642;2024-01-11T05:40:11;-3.30;99.90
11087;DHT22;5597;47.588;9.642;2024-01-11T05:42:36;-3.30;99.90
11087;DHT22;5597;47.588;9.642;2024-01-11T05:45:04;-3.30;99.90
11087;DHT22;5597;47.588;9.642;2024-01-11T05:47:30;-3.30;99.90
11087;DHT22;5597;47.588;9.642;2024-01-11T05:49:56;-3.40;99.90
11087;DHT22;5597;47.588;9.642;2024-01-11T05:52:22;-3.40;99.90
11087;DHT22;5597;47.588;9.642;2024-01-11T05:54:47;-3.40;99.90
11087;DHT22;5597;47.588;9.642;2024-01-11T05:57:13;-3.50;99.90
11087;DHT22;5597;47.588;9.642;2024-01-11T05:59:44;-3.50;99.90
11087;DHT22;5597;47.588;9.642;2024-01-11T06:02:10;-3.50;99.90
11087;DHT22;5597;47.588;9.642;2024-01-11T06:04:36;-3.50;99.90
11087;DHT22;5597;47.588;9.642;2024-01-11T06:07:02;-3.50;99.90
11087;DHT22;5597;47.588;9.642;2024-01-11T06:09:27;-3.50;99.90
11087;DHT22;5597;47.588;9.642;2024-01-11T06:11:53;-3.50;99.90
11087;DHT22;5597;47.588;9.642;2024-01-11T06:14:18;-3.60;99.90
11087;DHT22;5597;47.588;9.642;2024-01-11T06:16:44;-3.60;99.90
11087;DHT22;5597;47.588;9.642;2024-01-11T06:19:10;-3.60;99.90
11087;DHT22;5597;47.588;9.642;2024-01-11T06:21:35;-3.70;99.90
11087;DHT22;5597;47.588;9.642;2024-01-11T06:24:01;-3.70;99.90
11087;DHT22;5597;47.588;9.642;2024-01-11T06:26:28;-3.70;99.90
11087;DHT22;5597;47.588;9.642;2024-01-11T06:28:54;-3.80;99.90
11087;DHT22;5597;47.588;9.642;2024-01-11T06:31:20;-3.80;99.90
11087;DHT22;5597;47.588;9.642;2024-01-11T06:33:45;-3.80;99.90
11087;DHT22;5597;47.588;9.642;2024-01-11T06:36:11;-3.80;99.90
11087;DHT22;5597;47.588;9.642;2024-01-11T06:38:37;-3.70;99.90
11087;DHT22;5597;47.588;9.642;2024-01-11T06:41:02;-3.70;99.90
11087;DHT22;5597;47.588;9.642;2024-01-11T06:43:28;-3.80;99.90
11087;DHT22;5597;47.588;9.642;2024-01-11T06:45:53;-3.80;99.90
11087;DHT22;5597;47.588;9.642;2024-01-11T06:48:19;-3.90;99.90
11087;DHT22;5597;47.588;9.642;2024-01-11T06:50:45;-3.90;99.90
11087;DHT22;5597;47.588;9.642;2024-01-11T06:53:10;-3.90;99.90
11087;DHT22;5597;47.588;9.642;2024-01-11T06:55:36;-3.90;99.90
11087;DHT22;5597;47.588;9.642;2024-01-11T06:58:02;-3.90;99.90
11087;DHT22;5597;47.588;9.642;2024-01-11T07:00:27;-4.00;99.90
11087;DHT22;5597;47.588;9.642;2024-01-11T07:02:53;-4.00;99.90
11087;DHT22;5597;47.588;9.642;2024-01-11T07:05:19;-4.00;99.90
11087;DHT22;5597;47.588;9.642;2024-01-11T07:07:45;-4.00;99.90
11087;DHT22;5597;47.588;9.642;2024-01-11T07:10:11;-3.90;99.90
11087;DHT22;5597;47.588;9.642;2024-01-11T07:12:37;-4.00;99.90
11087;DHT22;5597;47.588;9.642;2024-01-11T07:15:04;-4.00;99.90
11087;DHT22;5597;47.588;9.642;2024-01-11T07:17:30;-4.00;99.90
11087;DHT22;5597;47.588;9.642;2024-01-11T07:19:56;-4.00;99.90
11087;DHT22;5597;47.588;9.642;2024-01-11T07:22:21;-4.00;99.90
11087;DHT22;5597;47.588;9.642;2024-01-11T07:24:47;-4.00;99.90
11087;DHT22;5597;47.588;9.642;2024-01-11T07:27:12;-4.00;99.90
11087;DHT22;5597;47.588;9.642;2024-01-11T07:29:38;-3.90;99.90
11087;DHT22;5597;47.588;9.642;2024-01-11T07:32:04;-3.90;99.90
11087;DHT22;5597;47.588;9.642;2024-01-11T07:34:30;-3.90;99.90
11087;DHT22;5597;47.588;9.642;2024-01-11T07:36:55;-3.90;99.90
11087;DHT22;5597;47.588;9.642;2024-01-11T07:39:22;-3.80;99.90
11087;DHT22;5597;47.588;9.642;2024-01-11T07:41:48;-3.80;99.90
11087;DHT22;5597;47.588;9.642;2024-01-11T07:44:14;-3.80;99.90
11087;DHT22;5597;47.588;9.642;2024-01-11T07:46:39;-3.80;99.90
11087;DHT22;5597;47.588;9.642;2024-01-11T07:49:06;-3.80;99.90
11087;DHT22;5597;47.588;9.642;2024-01-11T07:51:32;-3.80;99.90
11087;DHT22;5597;47.588;9.642;2024-01-11T07:53:57;-3.90;99.90
11087;DHT22;5597;47.588;9.642;2024-01-11T07:56:24;-3.80;99.90
11087;DHT22;5597;47.588;9.642;2024-01-11T07:58:49;-3.80;99.90
11087;DHT22;5597;47.588;9.642;2024-01-11T08:01:15;-3.80;99.90
11087;DHT22;5597;47.588;9.642;2024-01-11T08:03:41;-3.80;99.90
11087;DHT22;5597;47.588;9.642;2024-01-11T08:06:07;-3.80;99.90
11087;DHT22;5597;47.588;9.642;2024-01-11T08:08:34;-3.80;99.90
11087;DHT22;5597;47.588;9.642;2024-01-11T08:10:59;-3.80;99.90
11087;DHT22;5597;47.588;9.642;2024-01-11T08:13:25;-3.80;99.90
11087;DHT22;5597;47.588;9.642;2024-01-11T08:15:50;-3.80;99.90
11087;DHT22;5597;47.588;9.642;2024-01-11T08:18:18;-3.80;99.90
11087;DHT22;5597;47.588;9.642;2024-01-11T08:20:44;-3.80;99.90
11087;DHT22;5597;47.588;9.642;2024-01-11T08:23:09;-3.80;99.90
11087;DHT22;5597;47.588;9.642;2024-01-11T08:25:35;-3.80;99.90
11087;DHT22;5597;47.588;9.642;2024-01-11T08:28:01;-3.80;99.90
11087;DHT22;5597;47.588;9.642;2024-01-11T08:30:28;-3.80;99.90
11087;DHT22;5597;47.588;9.642;2024-01-11T08:32:54;-3.70;99.90
11087;DHT22;5597;47.588;9.642;2024-01-11T08:35:19;-3.70;99.90
11087;DHT22;5597;47.588;9.642;2024-01-11T08:37:45;-3.80;99.90
11087;DHT22;5597;47.588;9.642;2024-01-11T08:40:11;-3.80;99.90
11087;DHT22;5597;47.588;9.642;2024-01-11T08:42:37;-3.70;99.90
11087;DHT22;5597;47.588;9.642;2024-01-11T08:45:05;-3.70;99.90
11087;DHT22;5597;47.588;9.642;2024-01-11T08:47:32;-3.70;99.90
11087;DHT22;5597;47.588;9.642;2024-01-11T08:49:58;-3.70;99.90
11087;DHT22;5597;47.588;9.642;2024-01-11T08:52:23;-3.70;99.90
11087;DHT22;5597;47.588;9.642;2024-01-11T08:54:49;-3.70;99.90
11087;DHT22;5597;47.588;9.642;2024-01-11T08:57:15;-3.70;99.90
11087;DHT22;5597;47.588;9.642;2024-01-11T08:59:40;-3.60;99.90
11087;DHT22;5597;47.588;9.642;2024-01-11T09:02:06;-3.60;99.90
11087;DHT22;5597;47.588;9.642;2024-01-11T09:04:32;-3.70;99.90
11087;DHT22;5597;47.588;9.642;2024-01-11T09:06:59;-3.70;99.90
11087;DHT22;5597;47.588;9.642;2024-01-11T09:09:25;-3.70;99.90
11087;DHT22;5597;47.588;9.642;2024-01-11T09:11:50;-3.70;99.90
11087;DHT22;5597;47.588;9.642;2024-01-11T09:14:16;-3.60;99.90
11087;DHT22;5597;47.588;9.642;2024-01-11T09:16:42;-3.50;99.90
11087;DHT22;5597;47.588;9.642;2024-01-11T09:19:10;-3.50;99.90
11087;DHT22;5597;47.588;9.642;2024-01-11T09:21:36;-3.50;99.90
11087;DHT22;5597;47.588;9.642;2024-01-11T09:24:02;-3.50;99.90
11087;DHT22;5597;47.588;9.642;2024-01-11T09:26:27;-3.50;99.90
11087;DHT22;5597;47.588;9.642;2024-01-11T09:28:53;-3.50;99.90
11087;DHT22;5597;47.588;9.642;2024-01-11T09:31:18;-3.50;99.90
11087;DHT22;5597;47.588;9.642;2024-01-11T09:33:44;-3.50;99.90
11087;DHT22;5597;47.588;9.642;2024-01-11T09:36:11;-3.50;99.90
11087;DHT22;5597;47.588;9.642;2024-01-11T09:38:37;-3.40;99.90
11087;DHT22;5597;47.588;9.642;2024-01-11T09:41:12;-3.50;99.90
11087;DHT22;5597;47.588;9.642;2024-01-11T09:43:40;-3.40;99.90
11087;DHT22;5597;47.588;9.642;2024-01-11T09:46:06;-3.40;99.90
11087;DHT22;5597;47.588;9.642;2024-01-11T09:48:37;-3.40;99.90
11087;DHT22;5597;47.588;9.642;2024-01-11T09:51:07;-3.40;99.90
11087;DHT22;5597;47.588;9.642;2024-01-11T09:53:35;-3.30;99.90
11087;DHT22;5597;47.588;9.642;2024-01-11T09:56:09;-3.40;99.90
11087;DHT22;5597;47.588;9.642;2024-01-11T09:58:36;-3.30;99.90
11087;DHT22;5597;47.588;9.642;2024-01-11T10:01:09;-3.40;99.90
11087;DHT22;5597;47.588;9.642;2024-01-11T10:03:34;-3.30;99.90
11087;DHT22;5597;47.588;9.642;2024-01-11T10:06:00;-3.30;99.90
11087;DHT22;5597;47.588;9.642;2024-01-11T10:08:28;-3.30;99.90
11087;DHT22;5597;47.588;9.642;2024-01-11T10:10:54;-3.30;99.90
11087;DHT22;5597;47.588;9.642;2024-01-11T10:13:29;-3.30;99.90
11087;DHT22;5597;47.588;9.642;2024-01-11T10:16:11;-3.30;99.90
11087;DHT22;5597;47.588;9.642;2024-01-11T10:18:43;-3.30;99.90
11087;DHT22;5597;47.588;9.642;2024-01-11T10:21:09;-3.30;99.90
11087;DHT22;5597;47.588;9.642;2024-01-11T10:23:38;-3.30;99.90
11087;DHT22;5597;47.588;9.642;2024-01-11T10:26:04;-3.30;99.90
11087;DHT22;5597;47.588;9.642;2024-01-11T10:28:30;-3.30;99.90
11087;DHT22;5597;47.588;9.642;2024-01-11T10:30:56;-3.30;99.90
11087;DHT22;5597;47.588;9.642;2024-01-11T10:33:22;-3.40;99.90
11087;DHT22;5597;47.588;9.642;2024-01-11T10:35:49;-3.40;99.90
11087;DHT22;5597;47.588;9.642;2024-01-11T10:38:16;-3.40;99.90
11087;DHT22;5597;47.588;9.642;2024-01-11T10:40:42;-3.40;99.90
11087;DHT22;5597;47.588;9.642;2024-01-11T10:43:11;-3.30;99.90
11087;DHT22;5597;47.588;9.642;2024-01-11T10:45:37;-3.30;99.90
11087;DHT22;5597;47.588;9.642;2024-01-11T10:48:14;-3.30;99.90
11087;DHT22;5597;47.588;9.642;2024-01-11T10:50:45;-3.30;99.90
11087;DHT22;5597;47.588;9.642;2024-01-11T10:53:38;-3.30;99.90
11087;DHT22;5597;47.588;9.642;2024-01-11T10:56:06;-3.30;99.90
11087;DHT22;5597;47.588;9.642;2024-01-11T10:58:33;-3.30;99.90
11087;DHT22;5597;47.588;9.642;2024-01-11T11:01:01;-3.40;99.90
11087;DHT22;5597;47.588;9.642;2024-01-11T11:03:29;-3.40;99.90
11087;DHT22;5597;47.588;9.642;2024-01-11T11:05:57;-3.30;99.90
11087;DHT22;5597;47.588;9.642;2024-01-11T11:08:24;-3.30;99.90
11087;DHT22;5597;47.588;9.642;2024-01-11T11:11:00;-3.20;99.90
11087;DHT22;5597;47.588;9.642;2024-01-11T11:13:27;-3.10;99.90
11087;DHT22;5597;47.588;9.642;2024-01-11T11:15:53;-3.10;99.90
11087;DHT22;5597;47.588;9.642;2024-01-11T11:18:20;-3.10;99.90
11087;DHT22;5597;47.588;9.642;2024-01-11T11:20:47;-3.10;99.90
11087;DHT22;5597;47.588;9.642;2024-01-11T11:23:15;-3.10;99.90
11087;DHT22;5597;47.588;9.642;2024-01-11T11:25:45;-3.10;99.90
11087;DHT22;5597;47.588;9.642;2024-01-11T11:28:16;-3.10;99.90
11087;DHT22;5597;47.588;9.642;2024-01-11T11:30:44;-3.00;99.90
11087;DHT22;5597;47.588;9.642;2024-01-11T11:33:17;-3.00;99.90
11087;DHT22;5597;47.588;9.642;2024-01-11T11:35:43;-2.90;99.90
11087;DHT22;5597;47.588;9.642;2024-01-11T11:38:18;-2.90;99.90
11087;DHT22;5597;47.588;9.642;2024-01-11T11:40:46;-2.90;99.90
11087;DHT22;5597;47.588;9.642;2024-01-11T11:43:12;-2.90;99.90
11087;DHT22;5597;47.588;9.642;2024-01-11T11:45:40;-2.90;99.90
11087;DHT22;5597;47.588;9.642;2024-01-11T11:53:38;-2.70;99.90
11087;DHT22;5597;47.588;9.642;2024-01-11T11:56:04;-2.70;99.90
11087;DHT22;5597;47.588;9.642;2024-01-11T11:58:32;-2.60;99.90
11087;DHT22;5597;47.588;9.642;2024-01-11T12:00:58;-2.60;99.90
11087;DHT22;5597;47.588;9.642;2024-01-11T12:03:31;-2.60;99.90
11087;DHT22;5597;47.588;9.642;2024-01-11T12:05:57;-2.50;99.90
11087;DHT22;5597;47.588;9.642;2024-01-11T12:08:23;-2.50;99.90
11087;DHT22;5597;47.588;9.642;2024-01-11T12:10:49;-2.50;99.90
11087;DHT22;5597;47.588;9.642;2024-01-11T12:13:15;-2.50;99.90
11087;DHT22;5597;47.588;9.642;2024-01-11T12:15:41;-2.50;99.90
11087;DHT22;5597;47.588;9.642;2024-01-11T12:18:06;-2.50;99.90
11087;DHT22;5597;47.588;9.642;2024-01-11T12:20:35;-2.50;99.90
11087;DHT22;5597;47.588;9.642;2024-01-11T12:23:01;-2.60;99.90
11087;DHT22;5597;47.588;9.642;2024-01-11T12:25:30;-2.50;99.90
11087;DHT22;5597;47.588;9.642;2024-01-11T12:27:57;-2.50;99.90
11087;DHT22;5597;47.588;9.642;2024-01-11T12:30:23;-2.50;99.90
11087;DHT22;5597;47.588;9.642;2024-01-11T12:32:50;-2.60;99.90
11087;DHT22;5597;47.588;9.642;2024-01-11T12:35:16;-2.60;99.90
11087;DHT22;5597;47.588;9.642;2024-01-11T12:37:52;-2.50;99.90
11087;DHT22;5597;47.588;9.642;2024-01-11T12:40:17;-2.50;99.90
11087;DHT22;5597;47.588;9.642;2024-01-11T12:42:43;-2.50;99.90
11087;DHT22;5597;47.588;9.642;2024-01-11T12:45:09;-2.50;99.90
11087;DHT22;5597;47.588;9.642;2024-01-11T12:47:34;-2.50;99.90
11087;DHT22;5597;47.588;9.642;2024-01-11T12:50:00;-2.50;99.90
11087;DHT22;5597;47.588;9.642;2024-01-11T12:52:26;-2.50;99.90
11087;DHT22;5597;47.588;9.642;2024-01-11T12:54:53;-2.50;99.90
11087;DHT22;5597;47.588;9.642;2024-01-11T12:57:19;-2.50;99.90
11087;DHT22;5597;47.588;9.642;2024-01-11T12:59:45;-2.50;99.90
11087;DHT22;5597;47.588;9.642;2024-01-11T13:02:11;-2.50;99.90
11087;DHT22;5597;47.588;9.642;2024-01-11T13:04:40;-2.50;99.90
11087;DHT22;5597;47.588;9.642;2024-01-11T13:07:06;-2.40;99.90
11087;DHT22;5597;47.588;9.642;2024-01-11T13:09:32;-2.40;99.90
11087;DHT22;5597;47.588;9.642;2024-01-11T13:11:59;-2.40;99.90
11087;DHT22;5597;47.588;9.642;2024-01-11T13:14:25;-2.40;99.90
11087;DHT22;5597;47.588;9.642;2024-01-11T13:16:51;-2.40;99.90
11087;DHT22;5597;47.588;9.642;2024-01-11T13:19:16;-2.30;99.90
11087;DHT22;5597;47.588;9.642;2024-01-11T13:21:42;-2.30;99.90
11087;DHT22;5597;47.588;9.642;2024-01-11T13:24:08;-2.30;99.90
11087;DHT22;5597;47.588;9.642;2024-01-11T13:26:34;-2.30;99.90
11087;DHT22;5597;47.588;9.642;2024-01-11T13:29:02;-2.30;99.90
11087;DHT22;5597;47.588;9.642;2024-01-11T13:31:28;-2.30;99.90
11087;DHT22;5597;47.588;9.642;2024-01-11T13:33:53;-2.30;99.90
11087;DHT22;5597;47.588;9.642;2024-01-11T13:36:22;-2.20;99.90
11087;DHT22;5597;47.588;9.642;2024-01-11T13:38:48;-2.20;99.90
11087;DHT22;5597;47.588;9.642;2024-01-11T13:41:14;-2.10;99.90
11087;DHT22;5597;47.588;9.642;2024-01-11T13:43:41;-2.10;99.90
11087;DHT22;5597;47.588;9.642;2024-01-11T13:46:07;-2.00;99.90
11087;DHT22;5597;47.588;9.642;2024-01-11T13:48:33;-2.00;99.90
11087;DHT22;5597;47.588;9.642;2024-01-11T13:50:59;-2.00;99.90
11087;DHT22;5597;47.588;9.642;2024-01-11T13:53:25;-2.00;99.90
11087;DHT22;5597;47.588;9.642;2024-01-11T13:55:51;-2.00;99.90
11087;DHT22;5597;47.588;9.642;2024-01-11T13:58:17;-2.00;99.90
11087;DHT22;5597;47.588;9.642;2024-01-11T14:00:44;-2.00;99.90
11087;DHT22;5597;47.588;9.642;2024-01-11T14:03:09;-2.10;99.90
11087;DHT22;5597;47.588;9.642;2024-01-11T14:05:36;-2.10;99.90
11087;DHT22;5597;47.588;9.642;2024-01-11T14:08:02;-2.00;99.90
11087;DHT22;5597;47.588;9.642;2024-01-11T14:10:31;-2.00;99.90
11087;DHT22;5597;47.588;9.642;2024-01-11T14:13:01;-2.10;99.90
11087;DHT22;5597;47.588;9.642;2024-01-11T14:15:27;-2.10;99.90
11087;DHT22;5597;47.588;9.642;2024-01-11T14:17:53;-2.10;99.90
11087;DHT22;5597;47.588;9.642;2024-01-11T14:20:19;-2.10;99.90
11087;DHT22;5597;47.588;9.642;2024-01-11T14:22:46;-2.20;99.90
11087;DHT22;5597;47.588;9.642;2024-01-11T14:25:15;-2.20;99.90
11087;DHT22;5597;47.588;9.642;2024-01-11T14:27:40;-2.20;99.90
11087;DHT22;5597;47.588;9.642;2024-01-11T14:30:07;-2.30;99.90
11087;DHT22;5597;47.588;9.642;2024-01-11T14:32:33;-2.20;99.90
11087;DHT22;5597;47.588;9.642;2024-01-11T14:34:59;-2.20;99.90
11087;DHT22;5597;47.588;9.642;2024-01-11T14:37:29;-2.20;99.90
11087;DHT22;5597;47.588;9.642;2024-01-11T14:39:55;-2.20;99.90
11087;DHT22;5597;47.588;9.642;2024-01-11T14:42:20;-2.20;99.90
11087;DHT22;5597;47.588;9.642;2024-01-11T14:44:46;-2.20;99.90
11087;DHT22;5597;47.588;9.642;2024-01-11T14:47:11;-2.20;99.90
11087;DHT22;5597;47.588;9.642;2024-01-11T14:49:37;-2.20;99.90
11087;DHT22;5597;47.588;9.642;2024-01-11T14:52:02;-2.20;99.90
11087;DHT22;5597;47.588;9.642;2024-01-11T14:54:28;-2.30;99.90
11087;DHT22;5597;47.588;9.642;2024-01-11T14:56:54;-2.30;99.90
11087;DHT22;5597;47.588;9.642;2024-01-11T14:59:19;-2.30;99.90
11087;DHT22;5597;47.588;9.642;2024-01-11T15:01:45;-2.30;99.90
11087;DHT22;5597;47.588;9.642;2024-01-11T15:04:11;-2.30;99.90
11087;DHT22;5597;47.588;9.642;2024-01-11T15:06:36;-2.30;99.90
11087;DHT22;5597;47.588;9.642;2024-01-11T15:09:02;-2.30;99.90
11087;DHT22;5597;47.588;9.642;2024-01-11T15:11:28;-2.30;99.90
11087;DHT22;5597;47.588;9.642;2024-01-11T15:13:54;-2.30;99.90
11087;DHT22;5597;47.588;9.642;2024-01-11T15:16:20;-2.30;99.90
11087;DHT22;5597;47.588;9.642;2024-01-11T15:18:46;-2.40;99.90
11087;DHT22;5597;47.588;9.642;2024-01-11T15:21:11;-2.40;99.90
11087;DHT22;5597;47.588;9.642;2024-01-11T15:23:37;-2.40;99.90
11087;DHT22;5597;47.588;9.642;2024-01-11T15:26:03;-2.50;99.90
11087;DHT22;5597;47.588;9.642;2024-01-11T15:28:29;-2.50;99.90
11087;DHT22;5597;47.588;9.642;2024-01-11T15:30:54;-2.50;99.90
11087;DHT22;5597;47.588;9.642;2024-01-11T15:33:20;-2.60;99.90
11087;DHT22;5597;47.588;9.642;2024-01-11T15:35:45;-2.60;99.90
11087;DHT22;5597;47.588;9.642;2024-01-11T15:38:13;-2.60;99.90
11087;DHT22;5597;47.588;9.642;2024-01-11T15:40:39;-2.60;99.90
11087;DHT22;5597;47.588;9.642;2024-01-11T15:43:05;-2.60;99.90
11087;DHT22;5597;47.588;9.642;2024-01-11T15:45:32;-2.60;99.90